EW8803 Ciudad Real ES current weather conditions

sailwx.info

Wind from 233 at 8 knots gusting 13

Air temperature 17.2° C
Dewpoint 13.3° C

Last reported at 2020-Sep-19 09:06 UTC.
Time now 2020-Sep-19 09:34 UTC

Location: N 38°59' W 003°56'.
View on Google Maps.

See reports from other nearby stations

  
Tides and Currents Weather Stations Pressure Air Temp Water Temp Dewpoint Dewpoint Depression Visibility Wind Speed Wind Dir Waves Ship Positions
date/time (UTC)wind fromknots sea level pressurealtimeterstation pressurevisibilityair tempwater tempwave heightnotes
2020-Sep-19 09:06 233 8 gusting 13 17.2
2020-Sep-19 09:01 250 10 gusting 13 17.2
2020-Sep-19 08:56 277 8 gusting 11 17.2
2020-Sep-19 08:50 233 6 gusting 10 17.2
2020-Sep-19 08:45 269 5 gusting 11 17.2
2020-Sep-19 08:35 280 7 gusting 12 17.2
2020-Sep-19 08:30 225 5 gusting 14 17.2
2020-Sep-19 08:25 281 9 gusting 15 17.2
2020-Sep-19 08:20 229 8 gusting 15 17.2
2020-Sep-19 08:15 277 10 gusting 13 17.2
2020-Sep-19 08:10 241 8 gusting 16 17.2
2020-Sep-19 08:05 252 6 gusting 16 17.2
2020-Sep-19 08:01 253 5 gusting 15 17.2
2020-Sep-19 07:55 229 8 gusting 15 17.2
2020-Sep-19 07:50 231 5 gusting 10 16.7
2020-Sep-19 07:45 261 4 gusting 10 16.7
2020-Sep-19 07:40 236 4 gusting 12 16.7
2020-Sep-19 07:35 212 6 gusting 12 16.7
2020-Sep-19 07:30 150 3 gusting 9 16.1
2020-Sep-19 07:25 221 2 gusting 10 16.1
2020-Sep-19 07:20 233 6 gusting 10 16.1
2020-Sep-19 07:15 208 7 gusting 13 16.1
2020-Sep-19 07:10 241 5 gusting 13 16.1
2020-Sep-19 07:05 195 4 gusting 9 15.6
2020-Sep-19 07:00 198 4 gusting 8 15.6
2020-Sep-19 06:55 222 4 gusting 6 15.6
2020-Sep-19 06:50 262 3 gusting 6 15.6
2020-Sep-19 06:45 215 2 gusting 6 15.6
2020-Sep-19 06:40 261 3 gusting 6 15.6
2020-Sep-19 06:35 236 3 gusting 9 15.6
2020-Sep-19 06:30 240 3 gusting 9 15.6
2020-Sep-19 06:25 231 1 gusting 7 15.0
2020-Sep-19 06:20 277 1 gusting 7 15.0
2020-Sep-19 06:15 241 3 gusting 6 15.0
2020-Sep-19 06:10 221 4 gusting 7 15.0
2020-Sep-19 06:05 248 5 gusting 8 15.0
2020-Sep-19 06:00 210 5 gusting 8 15.0
2020-Sep-19 05:55 256 4 gusting 7 15.0
2020-Sep-19 05:50 254 4 gusting 6 15.0
2020-Sep-19 05:45 221 4 gusting 6 15.0
2020-Sep-19 05:40 225 4 gusting 9 15.0
2020-Sep-19 05:35 233 6 gusting 9 15.0
2020-Sep-19 05:30 210 4 gusting 8 15.0
2020-Sep-19 05:25 248 5 gusting 7 15.0
2020-Sep-19 05:20 195 4 gusting 8 15.0
2020-Sep-19 05:16 240 4 gusting 8 15.0
2020-Sep-19 05:10 205 6 gusting 8 15.0
2020-Sep-19 05:05 229 6 gusting 8 15.0
2020-Sep-19 05:01 218 4 gusting 7 15.0
2020-Sep-19 04:55 250 3 gusting 7 15.0
2020-Sep-19 04:50 223 3 gusting 5 15.0
2020-Sep-19 04:45 233 2 gusting 5 15.0
2020-Sep-19 04:40 238 4 gusting 5 15.0
2020-Sep-19 04:35 238 0 gusting 5 15.0
2020-Sep-19 04:30 252 3 gusting 5 15.0
2020-Sep-19 04:25 269 2 gusting 5 15.0
2020-Sep-19 04:20 229 0 gusting 5 15.0
2020-Sep-19 04:15 236 2 gusting 6 15.0
2020-Sep-19 04:10 229 4 gusting 6 15.0
2020-Sep-19 04:05 203 3 gusting 7 15.0
2020-Sep-19 04:01 246 3 gusting 7 15.0
2020-Sep-19 03:55 190 3 gusting 7 15.0
2020-Sep-19 03:50 218 2 gusting 5 15.0
2020-Sep-19 03:45 213 0 gusting 5 15.0
2020-Sep-19 03:40 243 1 gusting 2 15.0
2020-Sep-19 03:35 276 15.0
2020-Sep-19 03:30 231 2 gusting 6 15.6
2020-Sep-19 03:25 221 3 gusting 6 15.6
2020-Sep-19 03:10 236 6 gusting 8 15.6
2020-Sep-19 03:05 221 6 gusting 9 15.6
2020-Sep-19 03:00 218 6 gusting 9 15.6
2020-Sep-19 02:55 236 6 gusting 8 15.6
2020-Sep-19 02:50 214 3 gusting 6 15.6
2020-Sep-19 02:45 195 2 gusting 6 15.6
2020-Sep-19 02:40 219 2 gusting 6 15.6
2020-Sep-19 02:35 203 1 gusting 6 15.6
2020-Sep-19 02:30 216 0 gusting 6 15.6
2020-Sep-19 02:25 198 5 gusting 6 15.6
2020-Sep-19 02:20 211 3 gusting 10 15.6
2020-Sep-19 02:15 210 4 gusting 10 15.6
2020-Sep-19 02:10 198 6 gusting 8 15.6
2020-Sep-19 02:05 236 4 gusting 9 15.6
2020-Sep-19 02:01 214 4 gusting 9 15.6
2020-Sep-19 01:55 208 4 gusting 9 15.6
2020-Sep-19 01:50 226 6 gusting 9 15.6
2020-Sep-19 01:45 183 5 gusting 8 15.6
2020-Sep-19 01:40 231 4 gusting 11 15.6
2020-Sep-19 01:35 208 4 gusting 11 15.6
2020-Sep-19 01:30 276 5 gusting 11 15.6
2020-Sep-19 01:25 217 3 gusting 11 15.6
2020-Sep-19 01:20 290 6 gusting 14 15.6
2020-Sep-19 01:16 236 13 gusting 15 15.6
2020-Sep-19 01:10 229 10 gusting 15 15.6
2020-Sep-19 01:05 258 6 gusting 12 16.1
2020-Sep-19 01:00 238 6 gusting 12 16.1
2020-Sep-19 00:55 228 4 gusting 9 16.1
2020-Sep-19 00:50 248 5 gusting 10 16.1
2020-Sep-19 00:45 293 4 gusting 12 16.7
2020-Sep-19 00:40 238 8 gusting 13 16.7
2020-Sep-19 00:35 242 8 gusting 13 16.7
2020-Sep-19 00:30 237 6 gusting 10 16.7
2020-Sep-19 00:25 222 3 gusting 10 16.7
2020-Sep-19 00:20 241 6 gusting 10 16.7
2020-Sep-19 00:15 212 3 gusting 9 16.7
2020-Sep-19 00:10 219 4 gusting 12 16.7
2020-Sep-19 00:05 218 7 gusting 12 16.7
2020-Sep-19 00:00 221 2 gusting 12 17.2
2020-Sep-18 23:55 221 3 gusting 6 17.2
2020-Sep-18 23:50 233 3 gusting 6 17.2
2020-Sep-18 23:45 214 3 gusting 5 17.2
2020-Sep-18 23:40 176 2 gusting 5 17.2
2020-Sep-18 23:35 187 17.2
2020-Sep-18 23:30 207 0 gusting 6 17.2
2020-Sep-18 23:25 221 5 gusting 9 17.2
2020-Sep-18 23:20 215 5 gusting 9 17.2
2020-Sep-18 23:15 134 3 gusting 10 17.2
2020-Sep-18 23:10 212 6 gusting 11 17.2
2020-Sep-18 23:05 229 8 gusting 12 17.2
2020-Sep-18 23:01 208 5 gusting 12 17.2
2020-Sep-18 22:55 253 5 gusting 13 17.2
2020-Sep-18 22:50 212 6 gusting 14 17.2
2020-Sep-18 22:45 212 9 gusting 14 17.2
2020-Sep-18 22:40 200 6 gusting 16 17.2
2020-Sep-18 22:35 220 11 gusting 17 17.2
2020-Sep-18 22:30 214 10 gusting 17 17.2
2020-Sep-18 22:25 240 6 gusting 13 17.2
2020-Sep-18 22:20 232 7 gusting 13 17.2
2020-Sep-18 22:15 212 6 gusting 11 17.2
2020-Sep-18 22:10 218 6 gusting 11 17.2
2020-Sep-18 22:05 201 6 gusting 15 17.2
2020-Sep-18 22:01 217 9 gusting 15 17.2
2020-Sep-18 21:55 214 7 gusting 15 17.2
2020-Sep-18 21:50 230 4 gusting 7 17.2
2020-Sep-18 21:45 210 3 gusting 10 17.2
2020-Sep-18 21:40 188 2 gusting 10 17.2
2020-Sep-18 21:35 194 6 gusting 9 17.2
2020-Sep-18 21:30 234 6 gusting 9 17.2
2020-Sep-18 21:25 219 4 gusting 8 17.2
2020-Sep-18 21:20 200 4 gusting 8 17.2
2020-Sep-18 21:15 189 4 gusting 8 17.2
2020-Sep-18 21:10 203 4 gusting 11 17.2
2020-Sep-18 21:05 191 6 gusting 11 17.2
2020-Sep-18 21:00 211 5 gusting 9 17.2
2020-Sep-18 20:55 197 5 gusting 9 17.2
2020-Sep-18 20:50 224 5 gusting 9 17.2
2020-Sep-18 20:45 216 4 gusting 9 17.2
2020-Sep-18 20:40 230 3 gusting 6 16.7
2020-Sep-18 20:35 205 1 gusting 5 16.7
2020-Sep-18 20:30 216 3 gusting 5 16.7
2020-Sep-18 20:25 162 3 gusting 6 16.7
2020-Sep-18 20:20 230 2 gusting 6 16.7
2020-Sep-18 20:15 139 2 gusting 6 16.1
2020-Sep-18 20:10 184 3 gusting 6 16.1
2020-Sep-18 20:05 201 5 gusting 7 16.1
2020-Sep-18 20:01 165 4 gusting 7 16.1
2020-Sep-18 19:55 238 3 gusting 6 16.1
2020-Sep-18 19:50 183 4 gusting 6 16.1
2020-Sep-18 19:45 195 2 gusting 6 16.1
2020-Sep-18 19:40 118 4 gusting 8 16.1
2020-Sep-18 19:35 142 6 gusting 8 16.7
2020-Sep-18 19:30 194 5 gusting 6 16.7
2020-Sep-18 19:25 166 3 gusting 6 16.7
2020-Sep-18 19:20 194 2 gusting 5 16.7
2020-Sep-18 19:16 174 1 gusting 4 16.7
2020-Sep-18 19:10 192 1 gusting 4 16.7
2020-Sep-18 19:05 208 2 gusting 6 17.2
2020-Sep-18 19:00 208 4 gusting 6 17.2
2020-Sep-18 18:55 181 2 gusting 5 17.2
2020-Sep-18 18:50 155 1 gusting 5 17.2
2020-Sep-18 18:45 146 2 gusting 6 17.2
2020-Sep-18 18:40 187 2 gusting 6 17.8
2020-Sep-18 18:35 136 3 gusting 6 17.8
2020-Sep-18 18:30 116 2 gusting 6 17.8
2020-Sep-18 18:25 146 4 gusting 6 17.8
2020-Sep-18 18:20 149 1 gusting 6 17.8
2020-Sep-18 18:15 115 3 gusting 6 18.3
2020-Sep-18 18:10 172 1 gusting 6 18.3
2020-Sep-18 18:05 149 4 gusting 6 18.3
2020-Sep-18 18:00 140 3 gusting 6 18.3
2020-Sep-18 17:55 141 3 gusting 6 18.3
2020-Sep-18 17:50 143 4 gusting 6 18.3
2020-Sep-18 17:45 118 2 gusting 5 18.3
2020-Sep-18 17:40 132 0 gusting 5 18.3
2020-Sep-18 17:35 191 1 gusting 3 18.3
2020-Sep-18 17:30 117 18.3
2020-Sep-18 17:25 174 1 gusting 2 18.3
2020-Sep-18 17:20 121 3 gusting 6 18.3
2020-Sep-18 17:10 156 1 gusting 5 18.3
2020-Sep-18 17:05 125 2 gusting 4 18.3
2020-Sep-18 17:01 131 0 gusting 5 18.3
2020-Sep-18 16:55 134 2 gusting 5 18.3
2020-Sep-18 16:50 210 3 gusting 4 18.9
2020-Sep-18 16:45 085 18.9
2020-Sep-18 16:40 080 0 gusting 3 18.9
2020-Sep-18 16:35 073 18.9
2020-Sep-18 16:30 082 18.9
2020-Sep-18 16:25 274 18.3
2020-Sep-18 16:20 017 0 gusting 4 18.3
2020-Sep-18 16:15 283 3 gusting 4 18.9
2020-Sep-18 16:10 108 18.9
2020-Sep-18 16:05 010 0 gusting 3 18.9
2020-Sep-18 16:01 008 18.9
2020-Sep-18 15:55 240 18.9
2020-Sep-18 15:50 090 18.9
2020-Sep-18 15:45 328 1 gusting 6 18.9
2020-Sep-18 15:40 323 0 gusting 6 18.9
2020-Sep-18 15:35 323 3 gusting 6 18.9
2020-Sep-18 15:30 304 4 gusting 6 18.3
2020-Sep-18 15:25 326 2 gusting 6 18.3
2020-Sep-18 15:21 302 2 gusting 6 17.8
2020-Sep-18 15:15 338 0 gusting 6 17.2
2020-Sep-18 15:10 315 0 gusting 3 16.7
2020-Sep-18 15:05 241 1 gusting 7 16.1
2020-Sep-18 15:00 195 3 gusting 8 16.1
2020-Sep-18 14:55 228 2 gusting 10 16.1
2020-Sep-18 14:50 224 3 gusting 16 16.1
2020-Sep-18 14:45 233 13 gusting 16 17.2
2020-Sep-18 14:40 261 4 gusting 11 18.3
2020-Sep-18 14:35 272 4 gusting 6 18.3
2020-Sep-18 14:30 276 0 gusting 6 18.3
2020-Sep-18 14:25 125 1 gusting 6 18.3
2020-Sep-18 14:20 122 2 gusting 7 18.3
2020-Sep-18 14:10 152 3 gusting 4 18.9
2020-Sep-18 14:05 257 0 gusting 5 19.4
2020-Sep-18 14:01 316 3 gusting 5 19.4
2020-Sep-18 13:55 265 19.4
2020-Sep-18 13:50 082 19.4
2020-Sep-18 13:45 063 0 gusting 3 19.4
2020-Sep-18 13:40 056 19.4
2020-Sep-18 13:35 104 2 gusting 3 19.4
2020-Sep-18 13:30 072 0 gusting 3 18.9
2020-Sep-18 13:25 093 1 gusting 3 18.3
2020-Sep-18 13:20 105 3 gusting 4 18.3
2020-Sep-18 13:10 105 2 gusting 3 18.9
2020-Sep-18 13:05 082 0 gusting 5 18.9
2020-Sep-18 13:00 077 0 gusting 5 18.9
2020-Sep-18 12:55 132 18.9
2020-Sep-18 12:50 120 2 gusting 6 18.9
2020-Sep-18 12:45 148 2 gusting 4 19.4
2020-Sep-18 12:40 095 18.9
2020-Sep-18 12:35 058 0 gusting 3 18.9
2020-Sep-18 12:30 197 0 gusting 3 18.9
2020-Sep-18 12:25 110 1 gusting 3 18.9
2020-Sep-18 12:20 069 0 gusting 2 18.3
2020-Sep-18 12:15 113 0 gusting 2 18.3
2020-Sep-18 12:10 150 0 gusting 2 18.3
2020-Sep-18 12:05 110 1 gusting 2 18.3
2020-Sep-18 12:00 139 1 gusting 2 18.9
2020-Sep-18 11:55 073 0 gusting 3 18.9
2020-Sep-18 11:50 138 18.3
2020-Sep-18 11:45 117 0 gusting 3 18.3
2020-Sep-18 11:40 124 0 gusting 3 17.2
2020-Sep-18 11:35 122 1 gusting 3 17.2
2020-Sep-18 11:30 193 17.2
2020-Sep-18 11:25 081 16.7
2020-Sep-18 11:10 163 16.1
2020-Sep-18 11:05 193 0 gusting 1 16.1
2020-Sep-18 11:01 187 16.1
2020-Sep-18 10:55 115 16.1
2020-Sep-18 10:50 156 16.1
2020-Sep-18 10:45 195 15.6
2020-Sep-18 10:40 225 15.6
2020-Sep-18 10:35 141 1 gusting 4 15.6
2020-Sep-18 10:30 159 2 gusting 9 15.6
2020-Sep-18 10:25 205 3 gusting 9 15.6
2020-Sep-18 10:10 064 6 gusting 9 15.6
2020-Sep-18 10:05 163 4 gusting 9 15.6
2020-Sep-18 10:00 207 3 gusting 9 15.6
2020-Sep-18 09:55 166 1 gusting 3 15.6
2020-Sep-18 09:50 134 15.6
2020-Sep-18 09:45 146 0 gusting 2 15.6
2020-Sep-18 09:40 087 0 gusting 4 15.6
2020-Sep-18 09:35 334 0 gusting 6 15.6
2020-Sep-18 09:30 252 0 gusting 14 16.1
2020-Sep-18 09:25 085 8 gusting 14 17.8
2020-Sep-18 09:21 322 5 gusting 7 19.4
2020-Sep-18 09:15 316 3 gusting 4 20.0
2020-Sep-18 09:10 360 20.0
2020-Sep-18 09:06 027 20.0
2020-Sep-18 09:01 073 20.0
2020-Sep-18 08:55 072 0 gusting 1 20.0
2020-Sep-18 08:51 245 20.0
2020-Sep-18 08:45 221 20.0
2020-Sep-18 08:35 084 0 gusting 1 20.0
2020-Sep-18 08:30 077 20.0
2020-Sep-18 08:25 302 20.0
2020-Sep-18 08:21 219 20.0
2020-Sep-18 08:15 298 20.0
2020-Sep-18 08:10 307 20.0
2020-Sep-18 08:05 295 20.0
2020-Sep-18 08:00 305 1 gusting 3 20.0
2020-Sep-18 07:55 156 0 gusting 3 20.0
2020-Sep-18 07:50 322 1 gusting 3 20.0
2020-Sep-18 07:45 108 20.0
2020-Sep-18 07:40 302 2 gusting 4 20.0
2020-Sep-18 07:35 318 0 gusting 3 20.0
2020-Sep-18 07:30 315 1 gusting 4 20.0
2020-Sep-18 07:25 269 0 gusting 4 20.0
2020-Sep-18 07:20 312 2 gusting 4 20.0
2020-Sep-18 07:10 264 0 gusting 4 20.0
2020-Sep-18 07:05 284 20.0
2020-Sep-18 07:00 243 20.0
2020-Sep-18 06:55 319 20.0
2020-Sep-18 06:50 291 20.0
2020-Sep-18 06:45 260 4 gusting 6 20.0
2020-Sep-18 06:40 274 0 gusting 6 20.0
2020-Sep-18 06:35 218 2 gusting 6 19.4
2020-Sep-18 06:30 139 0 gusting 4 19.4
2020-Sep-18 06:25 177 2 gusting 4 19.4
2020-Sep-18 06:20 172 2 gusting 3 19.4
2020-Sep-18 06:15 216 19.4
2020-Sep-18 06:10 181 19.4
2020-Sep-18 06:05 199 0 gusting 4 19.4
2020-Sep-18 06:00 129 0 gusting 3 19.4
2020-Sep-18 05:55 126 1 gusting 3 19.4
2020-Sep-18 05:50 165 0 gusting 3 20.0
2020-Sep-18 05:45 157 1 gusting 4 20.0
2020-Sep-18 05:40 248 20.0
2020-Sep-18 05:35 206 2 gusting 6 20.0
2020-Sep-18 05:30 207 3 gusting 6 20.0
2020-Sep-18 05:25 207 0 gusting 6 20.0
2020-Sep-18 05:20 211 4 gusting 6 20.0
2020-Sep-18 05:15 236 1 gusting 6 20.0
2020-Sep-18 05:10 237 2 gusting 7 20.0
2020-Sep-18 05:05 222 4 gusting 8 20.0
2020-Sep-18 05:01 191 5 gusting 8 20.0
2020-Sep-18 04:55 217 4 gusting 8 20.0
2020-Sep-18 04:50 200 4 gusting 7 20.0
2020-Sep-18 04:45 207 4 gusting 6 20.0
2020-Sep-18 04:40 199 20.0
2020-Sep-18 04:35 221 20.0
2020-Sep-18 04:30 205 1 gusting 6 20.0
2020-Sep-18 04:25 207 2 gusting 6 20.0
2020-Sep-18 04:20 226 0 gusting 6 20.0
2020-Sep-18 04:15 223 3 gusting 6 20.6
2020-Sep-18 04:10 163 0 gusting 5 20.6
2020-Sep-18 04:05 162 2 gusting 4 20.6
2020-Sep-18 04:00 179 0 gusting 8 20.6
2020-Sep-18 03:55 146 4 gusting 8 20.6
2020-Sep-18 03:50 185 1 gusting 8 20.6
2020-Sep-18 03:45 186 6 gusting 8 20.6
2020-Sep-18 03:40 226 4 gusting 8 20.6
2020-Sep-18 03:35 269 5 gusting 8 20.6
2020-Sep-18 03:30 188 1 gusting 9 20.6
2020-Sep-18 03:25 215 6 gusting 9 20.6
2020-Sep-18 03:22 231 3 gusting 9 20.6
2020-Sep-18 03:16 197 6 gusting 13 20.6
2020-Sep-18 03:10 097 6 gusting 13 21.1
2020-Sep-18 03:05 205 6 gusting 14 20.6
2020-Sep-18 03:00 233 8 gusting 17 21.1
2020-Sep-18 02:55 210 9 gusting 17 21.1
2020-Sep-18 02:50 243 7 gusting 11 21.1
2020-Sep-18 02:45 217 2 gusting 10 21.1
2020-Sep-18 02:40 211 5 gusting 10 21.1
2020-Sep-18 02:35 221 5 gusting 10 21.1
2020-Sep-18 02:30 232 3 gusting 10 21.1
2020-Sep-18 02:25 188 4 gusting 11 21.1
2020-Sep-18 02:20 205 4 gusting 11 21.1
2020-Sep-18 02:15 243 6 gusting 13 21.1
2020-Sep-18 02:10 145 7 gusting 13 21.1
2020-Sep-18 02:05 203 2 gusting 10 21.1
2020-Sep-18 02:01 218 4 gusting 10 21.1
2020-Sep-18 01:55 203 4 gusting 8 21.1
2020-Sep-18 01:50 233 6 gusting 9 21.1
2020-Sep-18 01:45 210 5 gusting 13 21.1
2020-Sep-18 01:40 226 10 gusting 13 21.1
2020-Sep-18 01:35 183 4 gusting 9 21.1
2020-Sep-18 01:30 195 6 gusting 9 21.1
2020-Sep-18 01:25 193 5 gusting 8 21.7
2020-Sep-18 01:21 219 5 gusting 10 21.7
2020-Sep-18 01:16 204 4 gusting 15 21.7
2020-Sep-18 01:10 245 6 gusting 15 21.7
2020-Sep-18 01:05 241 8 gusting 13 21.7
2020-Sep-18 01:01 217 7 gusting 12 21.1
2020-Sep-18 00:55 208 7 gusting 12 21.1
2020-Sep-18 00:50 132 7 gusting 13 21.1
2020-Sep-18 00:45 214 7 gusting 13 21.1
2020-Sep-18 00:40 212 6 gusting 13 21.1
2020-Sep-18 00:38 184 5 gusting 13 21.1
2020-Sep-18 00:30 221 6 gusting 13 21.1
2020-Sep-18 00:25 195 5 gusting 13 21.7
2020-Sep-18 00:20 198 5 gusting 12 21.7
2020-Sep-18 00:15 218 6 gusting 12 21.7
2020-Sep-18 00:10 172 6 gusting 9 21.7
2020-Sep-18 00:05 218 5 gusting 9 21.7
2020-Sep-18 00:00 232 6 gusting 11 21.7
2020-Sep-17 23:55 174 6 gusting 11 21.7
2020-Sep-17 23:50 165 4 gusting 11 21.1
2020-Sep-17 23:45 116 6 gusting 11 21.7
2020-Sep-17 23:40 200 5 gusting 9 21.7
2020-Sep-17 23:35 211 6 gusting 9 21.1
2020-Sep-17 23:30 212 4 gusting 7 21.1
2020-Sep-17 23:25 207 2 gusting 6 20.6
2020-Sep-17 23:20 174 1 gusting 4 20.6
2020-Sep-17 23:15 180 1 gusting 2 20.6
2020-Sep-17 23:10 093 20.6
2020-Sep-17 23:05 120 20.6
2020-Sep-17 23:00 122 20.6
2020-Sep-17 22:55 105 20.6
2020-Sep-17 22:50 070 20.6
2020-Sep-17 22:45 087 0 gusting 1 20.6
2020-Sep-17 22:40 092 0 gusting 2 20.6
2020-Sep-17 22:35 099 1 gusting 2 20.6
2020-Sep-17 22:30 105 20.6
2020-Sep-17 22:25 139 0 gusting 2 21.1
2020-Sep-17 22:20 134 21.1
2020-Sep-17 22:15 072 1 gusting 4 21.1
2020-Sep-17 22:10 083 1 gusting 3 21.1
2020-Sep-17 22:05 104 1 gusting 2 21.7
2020-Sep-17 22:01 092 21.7
2020-Sep-17 21:55 217 21.7
2020-Sep-17 21:50 224 21.7
2020-Sep-17 21:45 277 21.7
2020-Sep-17 21:40 269 21.7
2020-Sep-17 21:35 248 21.7
2020-Sep-17 21:30 274 21.7
2020-Sep-17 21:25 274 21.7
2020-Sep-17 21:20 274 21.7
2020-Sep-17 21:15 274 21.7
2020-Sep-17 21:10 285 0 gusting 1 21.7
2020-Sep-17 21:05 262 21.1
2020-Sep-17 21:00 273 21.1
2020-Sep-17 20:55 277 21.1
2020-Sep-17 20:50 303 21.1
2020-Sep-17 20:45 281 0 gusting 2 21.1
2020-Sep-17 20:40 280 0 gusting 3 21.1
2020-Sep-17 20:35 300 0 gusting 3 21.1
2020-Sep-17 20:30 311 2 gusting 3 21.1
2020-Sep-17 20:25 326 21.7
2020-Sep-17 20:20 079 0 gusting 1 21.7
2020-Sep-17 20:15 046 21.7
2020-Sep-17 20:10 330 21.7
2020-Sep-17 20:05 129 21.7
2020-Sep-17 20:00 239 22.2
2020-Sep-17 19:55 280 22.2
2020-Sep-17 19:50 322 1 gusting 4 22.8
2020-Sep-17 19:45 264 22.8
2020-Sep-17 19:40 131 22.8
2020-Sep-17 19:35 139 1 gusting 1 22.8
2020-Sep-17 19:30 193 22.8
2020-Sep-17 19:25 223 1 gusting 4 22.8
2020-Sep-17 19:20 215 0 gusting 6 22.8
2020-Sep-17 19:15 215 2 gusting 8 23.3
2020-Sep-17 19:10 234 3 gusting 8 23.3
2020-Sep-17 19:05 207 3 gusting 9 23.3
2020-Sep-17 19:00 246 7 gusting 10 23.3
2020-Sep-17 18:55 240 7 gusting 15 23.3
2020-Sep-17 18:50 213 5 gusting 15 23.9
2020-Sep-17 18:45 179 10 gusting 17 23.9
2020-Sep-17 18:40 186 8 gusting 21 24.4
2020-Sep-17 18:35 198 11 gusting 21 25.0
2020-Sep-17 18:30 205 12 gusting 16 25.6
2020-Sep-17 18:25 155 6 gusting 12 25.6
2020-Sep-17 18:20 212 5 gusting 9 25.6
2020-Sep-17 18:15 201 1 gusting 7 26.1
2020-Sep-17 18:10 207 1 gusting 5 26.1
2020-Sep-17 18:05 154 0 gusting 6 26.1
2020-Sep-17 18:00 212 3 gusting 6 26.1
2020-Sep-17 17:55 195 1 gusting 6 26.1
2020-Sep-17 17:50 186 2 gusting 9 26.1
2020-Sep-17 17:45 207 4 gusting 9 26.1
2020-Sep-17 17:40 217 3 gusting 8 26.1
2020-Sep-17 17:35 163 3 gusting 9 26.7
2020-Sep-17 17:30 212 5 gusting 9 26.7
2020-Sep-17 17:25 145 2 gusting 7 26.7
2020-Sep-17 17:20 200 1 gusting 7 26.7
2020-Sep-17 17:15 244 6 gusting 10 26.7
2020-Sep-17 17:10 189 5 gusting 10 26.7
2020-Sep-17 17:05 257 5 gusting 9 26.7
2020-Sep-17 17:00 215 7 gusting 10 26.7
2020-Sep-17 16:55 171 6 gusting 10 26.7
2020-Sep-17 16:50 222 6 gusting 8 26.7
2020-Sep-17 16:45 174 5 gusting 7 26.7
2020-Sep-17 16:40 233 1 gusting 9 26.7
2020-Sep-17 16:35 221 6 gusting 13 26.7
2020-Sep-17 16:30 212 6 gusting 13 26.7
2020-Sep-17 16:25 220 6 gusting 12 26.7
2020-Sep-17 16:20 205 2 gusting 11 27.2
2020-Sep-17 16:15 193 3 gusting 11 27.2
2020-Sep-17 16:10 229 4 gusting 10 27.2
2020-Sep-17 16:05 167 6 gusting 11 27.2
2020-Sep-17 16:01 177 6 gusting 11 27.2
2020-Sep-17 15:55 246 2 gusting 10 27.2
2020-Sep-17 15:50 228 6 gusting 13 27.2
2020-Sep-17 15:45 218 8 gusting 13 27.2
2020-Sep-17 15:40 169 7 gusting 12 27.8
2020-Sep-17 15:35 229 6 gusting 12 27.2
2020-Sep-17 15:30 207 4 gusting 13 27.2
2020-Sep-17 15:25 239 6 gusting 14 27.2
2020-Sep-17 15:20 197 7 gusting 14 27.2
2020-Sep-17 15:15 237 5 gusting 12 27.8
2020-Sep-17 15:10 208 4 gusting 13 27.8
2020-Sep-17 15:05 249 10 gusting 13 27.8
2020-Sep-17 15:00 266 2 gusting 13 27.2
2020-Sep-17 14:55 215 7 gusting 13 27.2
2020-Sep-17 14:50 181 6 gusting 13 27.2
2020-Sep-17 14:45 183 4 gusting 13 27.2
2020-Sep-17 14:40 204 10 gusting 13 27.2
2020-Sep-17 14:35 189 5 gusting 18 27.2
2020-Sep-17 14:31 210 8 gusting 18 26.7
2020-Sep-17 14:25 228 9 gusting 13 26.7
2020-Sep-17 14:20 238 8 gusting 15 26.7
2020-Sep-17 14:15 220 6 gusting 16 26.7
2020-Sep-17 14:10 241 9 gusting 16 26.7
2020-Sep-17 14:05 243 10 gusting 14 26.7
2020-Sep-17 14:00 262 6 gusting 13 26.7
2020-Sep-17 13:55 190 6 gusting 13 26.1
2020-Sep-17 13:50 172 8 gusting 19 26.1
2020-Sep-17 13:45 223 6 gusting 19 26.1
2020-Sep-17 13:40 212 5 gusting 17 25.6
2020-Sep-17 13:35 222 11 gusting 16 25.6
2020-Sep-17 13:30 237 8 gusting 15 25.6
2020-Sep-17 13:25 238 9 gusting 13 25.6
2020-Sep-17 13:20 212 6 gusting 12 25.6
2020-Sep-17 13:15 173 4 gusting 11 25.6
2020-Sep-17 13:10 205 5 gusting 11 25.6
2020-Sep-17 13:05 159 4 gusting 9 25.6
2020-Sep-17 13:00 219 4 gusting 13 25.6
2020-Sep-17 12:55 165 3 gusting 13 25.6
2020-Sep-17 12:50 165 6 gusting 12 25.6
2020-Sep-17 12:45 210 2 gusting 12 25.6
2020-Sep-17 12:40 233 7 gusting 11 25.6
2020-Sep-17 12:36 208 6 gusting 11 25.6
2020-Sep-17 12:30 210 3 gusting 10 25.6
2020-Sep-17 12:25 212 6 gusting 18 25.0
2020-Sep-17 12:20 204 6 gusting 18 25.0
2020-Sep-17 12:15 236 6 gusting 12 24.4
2020-Sep-17 12:10 219 6 gusting 11 24.4
2020-Sep-17 12:05 238 4 gusting 13 24.4
2020-Sep-17 12:00 194 8 gusting 14 24.4
2020-Sep-17 11:55 213 7 gusting 14 24.4
2020-Sep-17 11:50 225 7 gusting 11 24.4
2020-Sep-17 11:45 214 3 gusting 11 24.4
2020-Sep-17 11:40 208 5 gusting 11 23.9
2020-Sep-17 11:35 203 2 gusting 8 23.9
2020-Sep-17 11:30 195 5 gusting 9 23.9
2020-Sep-17 11:25 224 5 gusting 9 23.9
2020-Sep-17 11:20 241 2 gusting 5 23.9
2020-Sep-17 11:15 241 2 gusting 5 23.9
2020-Sep-17 11:10 218 2 gusting 4 23.9
2020-Sep-17 11:05 079 2 gusting 4 23.9
2020-Sep-17 11:00 191 3 gusting 4 23.9
2020-Sep-17 10:55 090 23.3
2020-Sep-17 10:50 115 3 gusting 6 23.3
2020-Sep-17 10:45 096 3 gusting 4 23.3
2020-Sep-17 10:40 134 1 gusting 4 23.3
2020-Sep-17 10:35 115 1 gusting 4 23.3
2020-Sep-17 10:30 195 0 gusting 6 22.8
2020-Sep-17 10:25 121 3 gusting 6 22.8
2020-Sep-17 10:20 139 2 gusting 5 22.2
2020-Sep-17 10:15 079 1 gusting 3 22.8
2020-Sep-17 10:10 052 0 gusting 2 22.2
2020-Sep-17 10:05 135 0 gusting 4 22.2
2020-Sep-17 10:00 102 2 gusting 5 22.2
2020-Sep-17 09:55 104 22.2
2020-Sep-17 09:50 037 1 gusting 2 22.2
2020-Sep-17 09:45 101 0 gusting 1 22.2
2020-Sep-17 09:40 197 1 gusting 1 22.2
2020-Sep-17 09:35 141 0 gusting 1 22.2
2020-Sep-17 09:30 077 22.2
2020-Sep-17 09:25 077 21.7
2020-Sep-17 09:20 089 21.7
2020-Sep-17 09:15 077 21.7
2020-Sep-17 09:11 124 21.7
2020-Sep-17 09:05 082 0 gusting 2 21.1